sensor_id;sensor_type;location;lat;lon;timestamp;pressure;altitude;pressure_sealevel;temperature;humidity
22964;BME280;11648;49.306;6.934;2024-01-15T00:00:29;97581.03;;;3.25;59.61
22964;BME280;11648;49.306;6.934;2024-01-15T00:02:56;97579.16;;;2.92;60.29
22964;BME280;11648;49.306;6.934;2024-01-15T00:05:24;97570.53;;;2.98;60.52
22964;BME280;11648;49.306;6.934;2024-01-15T00:07:50;97572.34;;;3.19;59.81
22964;BME280;11648;49.306;6.934;2024-01-15T00:10:17;97574.09;;;3.24;59.97
22964;BME280;11648;49.306;6.934;2024-01-15T00:12:44;97575.88;;;3.46;59.29
22964;BME280;11648;49.306;6.934;2024-01-15T00:15:11;97581.84;;;3.08;60.44
22964;BME280;11648;49.306;6.934;2024-01-15T00:17:38;97566.31;;;3.32;59.67
22964;BME280;11648;49.306;6.934;2024-01-15T00:20:06;97566.34;;;3.44;59.55
22964;BME280;11648;49.306;6.934;2024-01-15T00:22:33;97568.91;;;3.35;59.82
22964;BME280;11648;49.306;6.934;2024-01-15T00:25:02;97561.09;;;3.24;59.83
22964;BME280;11648;49.306;6.934;2024-01-15T00:27:29;97561.13;;;3.42;59.83
22964;BME280;11648;49.306;6.934;2024-01-15T00:29:56;97561.13;;;3.45;59.77
22964;BME280;11648;49.306;6.934;2024-01-15T00:32:23;97547.25;;;3.30;59.64
22964;BME280;11648;49.306;6.934;2024-01-15T00:34:50;97547.25;;;3.27;59.97
22964;BME280;11648;49.306;6.934;2024-01-15T00:37:17;97547.25;;;3.27;60.33
22964;BME280;11648;49.306;6.934;2024-01-15T00:39:44;97549.03;;;3.47;59.44
22964;BME280;11648;49.306;6.934;2024-01-15T00:42:11;97546.38;;;3.35;59.80
22964;BME280;11648;49.306;6.934;2024-01-15T00:44:38;97543.78;;;3.29;60.28
22964;BME280;11648;49.306;6.934;2024-01-15T00:47:05;97544.69;;;3.53;59.33
22964;BME280;11648;49.306;6.934;2024-01-15T00:49:32;97535.16;;;3.55;59.47
22964;BME280;11648;49.306;6.934;2024-01-15T00:51:59;97529.06;;;3.37;59.97
22964;BME280;11648;49.306;6.934;2024-01-15T00:54:26;97529.97;;;3.61;59.26
22964;BME280;11648;49.306;6.934;2024-01-15T00:56:53;97534.31;;;3.65;59.10
22964;BME280;11648;49.306;6.934;2024-01-15T00:59:21;97530.84;;;3.73;59.01
22964;BME280;11648;49.306;6.934;2024-01-15T01:01:48;97539.50;;;3.57;59.34
22964;BME280;11648;49.306;6.934;2024-01-15T01:04:15;97537.78;;;3.76;58.89
22964;BME280;11648;49.306;6.934;2024-01-15T01:06:42;97536.91;;;3.66;59.13
22964;BME280;11648;49.306;6.934;2024-01-15T01:09:09;97540.34;;;3.56;59.59
22964;BME280;11648;49.306;6.934;2024-01-15T01:11:36;97535.16;;;3.56;59.84
22964;BME280;11648;49.306;6.934;2024-01-15T01:14:02;97528.25;;;3.84;59.01
22964;BME280;11648;49.306;6.934;2024-01-15T01:16:29;97530.78;;;3.43;60.11
22964;BME280;11648;49.306;6.934;2024-01-15T01:18:57;97523.00;;;3.67;59.48
22964;BME280;11648;49.306;6.934;2024-01-15T01:21:24;97528.25;;;3.93;58.87
22964;BME280;11648;49.306;6.934;2024-01-15T01:23:52;97526.50;;;3.90;59.13
22964;BME280;11648;49.306;6.934;2024-01-15T01:26:19;97520.44;;;3.76;58.95
22964;BME280;11648;49.306;6.934;2024-01-15T01:28:46;97517.81;;;4.16;58.33
22964;BME280;11648;49.306;6.934;2024-01-15T01:31:13;97518.72;;;3.95;58.67
22964;BME280;11648;49.306;6.934;2024-01-15T01:33:40;97513.50;;;3.83;59.18
22964;BME280;11648;49.306;6.934;2024-01-15T01:36:08;97510.03;;;3.90;59.22
22964;BME280;11648;49.306;6.934;2024-01-15T01:38:37;97511.75;;;3.86;59.20
22964;BME280;11648;49.306;6.934;2024-01-15T01:41:04;97506.53;;;3.82;59.33
22964;BME280;11648;49.306;6.934;2024-01-15T01:43:31;97510.00;;;3.88;59.12
22964;BME280;11648;49.306;6.934;2024-01-15T01:46:00;97510.00;;;3.85;59.47
22964;BME280;11648;49.306;6.934;2024-01-15T01:48:28;97512.63;;;3.90;58.84
22964;BME280;11648;49.306;6.934;2024-01-15T01:50:59;97513.50;;;3.96;58.93
22964;BME280;11648;49.306;6.934;2024-01-15T01:53:27;97510.03;;;3.79;59.58
22964;BME280;11648;49.306;6.934;2024-01-15T01:55:56;97517.84;;;3.90;59.56
22964;BME280;11648;49.306;6.934;2024-01-15T01:58:23;97515.22;;;3.96;59.19
22964;BME280;11648;49.306;6.934;2024-01-15T02:00:52;97503.09;;;3.98;59.13
22964;BME280;11648;49.306;6.934;2024-01-15T02:03:20;97516.09;;;3.95;59.42
22964;BME280;11648;49.306;6.934;2024-01-15T02:05:48;97507.41;;;4.01;59.12
22964;BME280;11648;49.306;6.934;2024-01-15T02:08:16;97500.47;;;3.75;60.21
22964;BME280;11648;49.306;6.934;2024-01-15T02:10:43;97499.59;;;3.58;60.38
22964;BME280;11648;49.306;6.934;2024-01-15T02:13:10;97505.69;;;3.90;59.58
22964;BME280;11648;49.306;6.934;2024-01-15T02:15:37;97490.94;;;4.05;58.97
22964;BME280;11648;49.306;6.934;2024-01-15T02:18:05;97495.25;;;3.81;59.91
22964;BME280;11648;49.306;6.934;2024-01-15T02:20:35;97496.13;;;3.68;60.09
22964;BME280;11648;49.306;6.934;2024-01-15T02:23:15;97500.50;;;3.66;60.36
22964;BME280;11648;49.306;6.934;2024-01-15T02:25:43;97489.22;;;3.73;60.30
22964;BME280;11648;49.306;6.934;2024-01-15T02:28:13;97490.06;;;3.57;60.64
22964;BME280;11648;49.306;6.934;2024-01-15T02:30:42;97475.31;;;3.92;59.94
22964;BME280;11648;49.306;6.934;2024-01-15T02:33:11;97475.28;;;4.11;59.54
22964;BME280;11648;49.306;6.934;2024-01-15T02:35:39;97477.03;;;4.16;59.39
22964;BME280;11648;49.306;6.934;2024-01-15T02:38:06;97464.91;;;3.94;60.25
22964;BME280;11648;49.306;6.934;2024-01-15T02:40:34;97455.31;;;4.22;58.97
22964;BME280;11648;49.306;6.934;2024-01-15T02:43:00;97459.66;;;4.18;59.16
22964;BME280;11648;49.306;6.934;2024-01-15T02:45:27;97450.09;;;4.19;59.26
22964;BME280;11648;49.306;6.934;2024-01-15T02:47:55;97476.97;;;4.33;59.04
22964;BME280;11648;49.306;6.934;2024-01-15T02:50:22;97502.13;;;4.47;59.16
22964;BME280;11648;49.306;6.934;2024-01-15T02:52:49;97504.75;;;4.43;59.36
22964;BME280;11648;49.306;6.934;2024-01-15T02:55:16;97491.69;;;4.63;58.39
22964;BME280;11648;49.306;6.934;2024-01-15T02:57:43;97482.91;;;4.74;58.04
22964;BME280;11648;49.306;6.934;2024-01-15T03:00:10;97490.72;;;4.83;57.65
22964;BME280;11648;49.306;6.934;2024-01-15T03:02:39;97474.28;;;4.60;57.97
22964;BME280;11648;49.306;6.934;2024-01-15T03:05:10;97478.59;;;4.67;58.24
22964;BME280;11648;49.306;6.934;2024-01-15T03:07:37;97473.41;;;4.64;58.50
22964;BME280;11648;49.306;6.934;2024-01-15T03:10:05;97462.03;;;4.82;57.66
22964;BME280;11648;49.306;6.934;2024-01-15T03:12:33;97460.47;;;4.43;58.64
22964;BME280;11648;49.306;6.934;2024-01-15T03:15:00;97469.13;;;4.53;58.97
22964;BME280;11648;49.306;6.934;2024-01-15T03:17:27;97469.94;;;4.61;58.77
22964;BME280;11648;49.306;6.934;2024-01-15T03:19:54;97462.06;;;4.74;58.28
22964;BME280;11648;49.306;6.934;2024-01-15T03:22:21;97457.75;;;4.69;58.34
22964;BME280;11648;49.306;6.934;2024-01-15T03:24:47;97454.25;;;4.80;57.90
22964;BME280;11648;49.306;6.934;2024-01-15T03:27:15;97477.72;;;4.73;58.18
22964;BME280;11648;49.306;6.934;2024-01-15T03:29:41;97469.84;;;4.88;58.46
22964;BME280;11648;49.306;6.934;2024-01-15T03:32:08;97480.31;;;4.80;58.64
22964;BME280;11648;49.306;6.934;2024-01-15T03:34:35;97459.41;;;4.86;58.32
22964;BME280;11648;49.306;6.934;2024-01-15T03:37:02;97451.59;;;4.89;57.88
22964;BME280;11648;49.306;6.934;2024-01-15T03:39:30;97448.91;;;5.05;57.54
22964;BME280;11648;49.306;6.934;2024-01-15T03:41:57;97444.53;;;5.10;57.54
22964;BME280;11648;49.306;6.934;2024-01-15T03:44:24;97440.13;;;5.18;57.67
22964;BME280;11648;49.306;6.934;2024-01-15T03:46:51;97443.69;;;5.00;57.70
22964;BME280;11648;49.306;6.934;2024-01-15T03:49:18;97429.72;;;5.16;57.37
22964;BME280;11648;49.306;6.934;2024-01-15T03:51:45;97436.84;;;4.82;58.26
22964;BME280;11648;49.306;6.934;2024-01-15T03:54:12;97414.94;;;5.12;57.89
22964;BME280;11648;49.306;6.934;2024-01-15T03:56:39;97424.41;;;5.27;56.84
22964;BME280;11648;49.306;6.934;2024-01-15T03:59:06;97438.34;;;5.23;57.69
22964;BME280;11648;49.306;6.934;2024-01-15T04:01:33;97421.84;;;5.18;57.97
22964;BME280;11648;49.306;6.934;2024-01-15T04:04:00;97431.41;;;5.23;57.68
22964;BME280;11648;49.306;6.934;2024-01-15T04:06:27;97433.06;;;5.33;57.63
22964;BME280;11648;49.306;6.934;2024-01-15T04:08:54;97416.53;;;5.33;57.18
22964;BME280;11648;49.306;6.934;2024-01-15T04:11:20;97414.81;;;5.29;57.06
22964;BME280;11648;49.306;6.934;2024-01-15T04:13:49;97401.72;;;5.36;57.13
22964;BME280;11648;49.306;6.934;2024-01-15T04:16:15;97404.50;;;5.11;57.50
22964;BME280;11648;49.306;6.934;2024-01-15T04:18:42;97399.13;;;5.36;57.16
22964;BME280;11648;49.306;6.934;2024-01-15T04:21:09;97388.72;;;5.32;58.05
22964;BME280;11648;49.306;6.934;2024-01-15T04:23:36;97393.84;;;5.42;57.37
22964;BME280;11648;49.306;6.934;2024-01-15T04:26:03;97394.91;;;5.19;57.93
22964;BME280;11648;49.306;6.934;2024-01-15T04:28:30;97388.78;;;5.23;58.09
22964;BME280;11648;49.306;6.934;2024-01-15T04:30:57;97387.88;;;5.28;57.58
22964;BME280;11648;49.306;6.934;2024-01-15T04:33:24;97395.56;;;5.46;57.63
22964;BME280;11648;49.306;6.934;2024-01-15T04:35:51;97376.31;;;5.58;56.47
22964;BME280;11648;49.306;6.934;2024-01-15T04:38:18;97373.66;;;5.64;56.68
22964;BME280;11648;49.306;6.934;2024-01-15T04:40:45;97372.81;;;5.62;57.35
22964;BME280;11648;49.306;6.934;2024-01-15T04:43:12;97377.34;;;5.39;57.70
22964;BME280;11648;49.306;6.934;2024-01-15T04:45:39;97376.38;;;5.52;57.63
22964;BME280;11648;49.306;6.934;2024-01-15T04:48:06;97373.88;;;5.41;57.70
22964;BME280;11648;49.306;6.934;2024-01-15T04:50:33;97381.66;;;5.44;57.73
22964;BME280;11648;49.306;6.934;2024-01-15T04:53:00;97380.94;;;5.26;58.16
22964;BME280;11648;49.306;6.934;2024-01-15T04:55:26;97370.34;;;5.48;57.05
22964;BME280;11648;49.306;6.934;2024-01-15T04:57:53;97368.81;;;5.19;58.59
22964;BME280;11648;49.306;6.934;2024-01-15T05:00:20;97362.63;;;5.33;58.24
22964;BME280;11648;49.306;6.934;2024-01-15T05:02:47;97360.00;;;5.32;58.53
22964;BME280;11648;49.306;6.934;2024-01-15T05:05:14;97365.28;;;5.27;58.72
22964;BME280;11648;49.306;6.934;2024-01-15T05:07:41;97359.09;;;5.36;57.97
22964;BME280;11648;49.306;6.934;2024-01-15T05:10:08;97359.34;;;5.09;59.10
22964;BME280;11648;49.306;6.934;2024-01-15T05:12:35;97360.16;;;5.14;58.74
22964;BME280;11648;49.306;6.934;2024-01-15T05:15:02;97360.19;;;5.11;59.10
22964;BME280;11648;49.306;6.934;2024-01-15T05:17:29;97353.19;;;5.16;59.44
22964;BME280;11648;49.306;6.934;2024-01-15T05:19:57;97353.97;;;5.27;58.51
22964;BME280;11648;49.306;6.934;2024-01-15T05:22:24;97342.75;;;5.17;59.02
22964;BME280;11648;49.306;6.934;2024-01-15T05:24:52;97344.41;;;5.27;58.81
22964;BME280;11648;49.306;6.934;2024-01-15T05:27:18;97335.59;;;5.40;58.53
22964;BME280;11648;49.306;6.934;2024-01-15T05:29:45;97341.69;;;5.39;59.03
22964;BME280;11648;49.306;6.934;2024-01-15T05:32:12;97341.63;;;5.48;58.36
22964;BME280;11648;49.306;6.934;2024-01-15T05:34:39;97338.97;;;5.50;58.50
22964;BME280;11648;49.306;6.934;2024-01-15T05:37:09;97333.72;;;5.55;57.92
22964;BME280;11648;49.306;6.934;2024-01-15T05:39:36;97327.91;;;5.27;59.21
22964;BME280;11648;49.306;6.934;2024-01-15T05:42:03;97345.28;;;5.26;58.98
22964;BME280;11648;49.306;6.934;2024-01-15T05:44:30;97339.91;;;5.43;58.71
22964;BME280;11648;49.306;6.934;2024-01-15T05:46:57;97334.56;;;5.58;57.80
22964;BME280;11648;49.306;6.934;2024-01-15T05:49:24;97342.38;;;5.58;58.62
22964;BME280;11648;49.306;6.934;2024-01-15T05:51:51;97346.81;;;5.50;58.01
22964;BME280;11648;49.306;6.934;2024-01-15T05:54:18;97338.03;;;5.57;58.63
22964;BME280;11648;49.306;6.934;2024-01-15T05:56:46;97339.06;;;5.39;58.36
22964;BME280;11648;49.306;6.934;2024-01-15T05:59:13;97338.19;;;5.45;58.88
22964;BME280;11648;49.306;6.934;2024-01-15T06:01:41;97335.84;;;5.09;59.58
22964;BME280;11648;49.306;6.934;2024-01-15T06:04:08;97335.84;;;5.13;60.09
22964;BME280;11648;49.306;6.934;2024-01-15T06:06:36;97337.50;;;5.19;60.50
22964;BME280;11648;49.306;6.934;2024-01-15T06:09:02;97336.56;;;5.30;60.34
22964;BME280;11648;49.306;6.934;2024-01-15T06:11:32;97326.00;;;5.42;59.50
22964;BME280;11648;49.306;6.934;2024-01-15T06:13:59;97327.78;;;5.42;60.05
22964;BME280;11648;49.306;6.934;2024-01-15T06:16:28;97324.16;;;5.55;58.96
22964;BME280;11648;49.306;6.934;2024-01-15T06:18:55;97310.47;;;5.29;59.74
22964;BME280;11648;49.306;6.934;2024-01-15T06:21:22;97317.69;;;4.96;60.38
22964;BME280;11648;49.306;6.934;2024-01-15T06:23:49;97316.59;;;5.26;60.26
22964;BME280;11648;49.306;6.934;2024-01-15T06:26:16;97310.81;;;4.88;60.95
22964;BME280;11648;49.306;6.934;2024-01-15T06:28:43;97309.03;;;4.94;61.70
22964;BME280;11648;49.306;6.934;2024-01-15T06:31:10;97304.34;;;5.34;60.33
22964;BME280;11648;49.306;6.934;2024-01-15T06:33:37;97308.88;;;5.11;60.97
22964;BME280;11648;49.306;6.934;2024-01-15T06:36:05;97306.19;;;5.22;60.31
22964;BME280;11648;49.306;6.934;2024-01-15T06:38:32;97314.03;;;5.19;60.47
22964;BME280;11648;49.306;6.934;2024-01-15T06:40:59;97308.84;;;5.17;60.77
22964;BME280;11648;49.306;6.934;2024-01-15T06:43:26;97305.38;;;5.14;61.61
22964;BME280;11648;49.306;6.934;2024-01-15T06:45:53;97307.03;;;5.25;60.96
22964;BME280;11648;49.306;6.934;2024-01-15T06:48:20;97300.06;;;5.26;60.81
22964;BME280;11648;49.306;6.934;2024-01-15T06:50:47;97301.31;;;5.77;59.20
22964;BME280;11648;49.306;6.934;2024-01-15T06:53:14;97294.53;;;5.59;59.27
22964;BME280;11648;49.306;6.934;2024-01-15T06:55:41;97289.16;;;5.73;59.00
22964;BME280;11648;49.306;6.934;2024-01-15T06:58:08;97285.00;;;5.55;59.69
22964;BME280;11648;49.306;6.934;2024-01-15T07:00:35;97298.03;;;5.58;60.03
22964;BME280;11648;49.306;6.934;2024-01-15T07:03:02;97298.84;;;5.62;59.66
22964;BME280;11648;49.306;6.934;2024-01-15T07:05:29;97299.69;;;5.65;59.47
22964;BME280;11648;49.306;6.934;2024-01-15T07:07:57;97294.38;;;5.73;59.16
22964;BME280;11648;49.306;6.934;2024-01-15T07:10:24;97292.88;;;5.52;59.96
22964;BME280;11648;49.306;6.934;2024-01-15T07:12:52;97294.56;;;5.56;60.17
22964;BME280;11648;49.306;6.934;2024-01-15T07:15:20;97297.63;;;5.97;59.12
22964;BME280;11648;49.306;6.934;2024-01-15T07:17:47;97290.00;;;5.75;59.29
22964;BME280;11648;49.306;6.934;2024-01-15T07:20:14;97290.13;;;5.64;59.96
22964;BME280;11648;49.306;6.934;2024-01-15T07:22:41;97277.81;;;5.77;59.61
22964;BME280;11648;49.306;6.934;2024-01-15T07:25:08;97273.38;;;5.86;59.36
22964;BME280;11648;49.306;6.934;2024-01-15T07:27:34;97288.59;;;5.45;61.16
22964;BME280;11648;49.306;6.934;2024-01-15T07:30:02;97291.13;;;5.51;61.02
22964;BME280;11648;49.306;6.934;2024-01-15T07:32:31;97287.53;;;5.63;60.19
22964;BME280;11648;49.306;6.934;2024-01-15T07:34:58;97290.19;;;5.58;60.75
22964;BME280;11648;49.306;6.934;2024-01-15T07:37:26;97299.75;;;5.58;60.53
22964;BME280;11648;49.306;6.934;2024-01-15T07:39:53;97298.91;;;5.56;61.12
22964;BME280;11648;49.306;6.934;2024-01-15T07:42:20;97290.00;;;5.76;60.00
22964;BME280;11648;49.306;6.934;2024-01-15T07:44:46;97295.84;;;6.01;59.88
22964;BME280;11648;49.306;6.934;2024-01-15T07:47:13;97292.47;;;5.90;60.27
22964;BME280;11648;49.306;6.934;2024-01-15T07:49:40;97294.34;;;5.77;60.57
22964;BME280;11648;49.306;6.934;2024-01-15T07:52:07;97301.22;;;5.84;61.00
22964;BME280;11648;49.306;6.934;2024-01-15T07:54:34;97302.31;;;5.64;61.00
22964;BME280;11648;49.306;6.934;2024-01-15T07:57:02;97291.84;;;5.67;60.86
22964;BME280;11648;49.306;6.934;2024-01-15T07:59:32;97290.22;;;5.55;60.87
22964;BME280;11648;49.306;6.934;2024-01-15T08:01:59;97287.34;;;5.79;61.10
22964;BME280;11648;49.306;6.934;2024-01-15T08:04:26;97297.94;;;5.64;61.41
22964;BME280;11648;49.306;6.934;2024-01-15T08:06:54;97288.16;;;5.89;60.21
22964;BME280;11648;49.306;6.934;2024-01-15T08:09:21;97292.69;;;5.69;61.06
22964;BME280;11648;49.306;6.934;2024-01-15T08:11:48;97286.63;;;5.67;61.38
22964;BME280;11648;49.306;6.934;2024-01-15T08:14:18;97292.59;;;5.76;60.59
22964;BME280;11648;49.306;6.934;2024-01-15T08:16:46;97282.88;;;5.95;60.48
22964;BME280;11648;49.306;6.934;2024-01-15T08:19:13;97280.34;;;5.89;61.53
22964;BME280;11648;49.306;6.934;2024-01-15T08:21:41;97280.19;;;6.00;60.74
22964;BME280;11648;49.306;6.934;2024-01-15T08:24:08;97282.06;;;5.85;61.32
22964;BME280;11648;49.306;6.934;2024-01-15T08:26:35;97283.81;;;5.86;61.33
22964;BME280;11648;49.306;6.934;2024-01-15T08:29:02;97280.34;;;5.86;61.29
22964;BME280;11648;49.306;6.934;2024-01-15T08:31:29;97294.22;;;5.89;61.36
22964;BME280;11648;49.306;6.934;2024-01-15T08:33:56;97291.53;;;5.97;61.34
22964;BME280;11648;49.306;6.934;2024-01-15T08:36:23;97286.84;;;6.25;61.16
22964;BME280;11648;49.306;6.934;2024-01-15T08:38:53;97282.81;;;5.98;61.14
22964;BME280;11648;49.306;6.934;2024-01-15T08:41:20;97288.78;;;6.08;61.47
22964;BME280;11648;49.306;6.934;2024-01-15T08:43:46;97283.28;;;6.29;61.39
22964;BME280;11648;49.306;6.934;2024-01-15T08:46:13;97278.16;;;6.24;61.52
22964;BME280;11648;49.306;6.934;2024-01-15T08:48:40;97278.94;;;6.31;61.22
22964;BME280;11648;49.306;6.934;2024-01-15T08:51:07;97279.84;;;6.25;61.18
22964;BME280;11648;49.306;6.934;2024-01-15T08:53:35;97274.44;;;6.42;60.50
22964;BME280;11648;49.306;6.934;2024-01-15T08:56:01;97269.81;;;6.59;60.18
22964;BME280;11648;49.306;6.934;2024-01-15T08:58:28;97267.41;;;6.44;60.75
22964;BME280;11648;49.306;6.934;2024-01-15T09:00:55;97269.81;;;6.58;60.53
22964;BME280;11648;49.306;6.934;2024-01-15T09:03:23;97262.78;;;6.63;60.44
22964;BME280;11648;49.306;6.934;2024-01-15T09:05:50;97271.44;;;6.68;59.74
22964;BME280;11648;49.306;6.934;2024-01-15T09:08:18;97281.97;;;6.63;59.87
22964;BME280;11648;49.306;6.934;2024-01-15T09:10:45;97274.13;;;6.63;59.76
22964;BME280;11648;49.306;6.934;2024-01-15T09:13:12;97270.47;;;6.75;59.94
22964;BME280;11648;49.306;6.934;2024-01-15T09:15:39;97273.03;;;6.76;59.80
22964;BME280;11648;49.306;6.934;2024-01-15T09:18:06;97275.00;;;6.62;60.58
22964;BME280;11648;49.306;6.934;2024-01-15T09:20:35;97274.88;;;6.70;60.28
22964;BME280;11648;49.306;6.934;2024-01-15T09:23:02;97274.13;;;6.63;60.48
22964;BME280;11648;49.306;6.934;2024-01-15T09:25:29;97271.19;;;6.86;59.80
22964;BME280;11648;49.306;6.934;2024-01-15T09:27:56;97275.59;;;6.79;60.08
22964;BME280;11648;49.306;6.934;2024-01-15T09:30:23;97263.31;;;6.86;59.76
22964;BME280;11648;49.306;6.934;2024-01-15T09:32:50;97271.00;;;6.97;59.74
22964;BME280;11648;49.306;6.934;2024-01-15T09:35:18;97273.63;;;6.97;59.79
22964;BME280;11648;49.306;6.934;2024-01-15T09:37:46;97277.44;;;6.74;60.32
22964;BME280;11648;49.306;6.934;2024-01-15T09:40:14;97276.31;;;6.90;60.15
22964;BME280;11648;49.306;6.934;2024-01-15T09:42:43;97270.16;;;6.94;59.98
22964;BME280;11648;49.306;6.934;2024-01-15T09:45:11;97274.03;;;6.69;60.98
22964;BME280;11648;49.306;6.934;2024-01-15T09:47:40;97268.84;;;6.65;61.26
22964;BME280;11648;49.306;6.934;2024-01-15T09:50:13;97273.09;;;6.72;61.10
22964;BME280;11648;49.306;6.934;2024-01-15T09:52:40;97271.09;;;6.90;60.46
22964;BME280;11648;49.306;6.934;2024-01-15T09:55:09;97273.75;;;6.89;61.00
22964;BME280;11648;49.306;6.934;2024-01-15T09:57:36;97273.91;;;6.75;61.50
22964;BME280;11648;49.306;6.934;2024-01-15T10:00:04;97278.00;;;6.96;61.18
22964;BME280;11648;49.306;6.934;2024-01-15T10:02:33;97281.59;;;6.89;61.36
22964;BME280;11648;49.306;6.934;2024-01-15T10:05:02;97289.28;;;7.00;60.88
22964;BME280;11648;49.306;6.934;2024-01-15T10:07:30;97284.09;;;6.95;61.07
22964;BME280;11648;49.306;6.934;2024-01-15T10:09:59;97277.50;;;6.71;61.72
22964;BME280;11648;49.306;6.934;2024-01-15T10:12:26;97280.16;;;6.67;61.80
22964;BME280;11648;49.306;6.934;2024-01-15T10:14:55;97294.28;;;6.55;61.86
22964;BME280;11648;49.306;6.934;2024-01-15T10:17:24;97280.44;;;6.49;62.20
22964;BME280;11648;49.306;6.934;2024-01-15T10:19:51;97273.09;;;6.72;61.77
22964;BME280;11648;49.306;6.934;2024-01-15T10:22:18;97275.75;;;6.70;61.72
22964;BME280;11648;49.306;6.934;2024-01-15T10:24:45;97280.72;;;6.87;60.96
22964;BME280;11648;49.306;6.934;2024-01-15T10:27:15;97275.91;;;7.16;60.61
22964;BME280;11648;49.306;6.934;2024-01-15T10:29:43;97276.06;;;7.07;60.68
22964;BME280;11648;49.306;6.934;2024-01-15T10:32:11;97275.38;;;6.96;60.95
22964;BME280;11648;49.306;6.934;2024-01-15T10:34:39;97274.22;;;7.12;60.35
22964;BME280;11648;49.306;6.934;2024-01-15T10:37:12;97270.34;;;6.82;61.14
22964;BME280;11648;49.306;6.934;2024-01-15T10:39:39;97265.72;;;7.00;60.51
22964;BME280;11648;49.306;6.934;2024-01-15T10:42:06;97263.28;;;6.89;61.13
22964;BME280;11648;49.306;6.934;2024-01-15T10:44:35;97265.72;;;6.98;60.72
22964;BME280;11648;49.306;6.934;2024-01-15T10:47:02;97259.50;;;7.07;60.38
22964;BME280;11648;49.306;6.934;2024-01-15T10:49:30;97259.75;;;6.91;60.81
22964;BME280;11648;49.306;6.934;2024-01-15T10:52:03;97252.81;;;6.87;61.54
22964;BME280;11648;49.306;6.934;2024-01-15T10:54:31;97254.22;;;7.10;60.70
22964;BME280;11648;49.306;6.934;2024-01-15T10:56:58;97259.06;;;7.31;60.06
22964;BME280;11648;49.306;6.934;2024-01-15T10:59:26;97262.00;;;7.13;60.42
22964;BME280;11648;49.306;6.934;2024-01-15T11:01:53;97263.69;;;7.15;60.44
22964;BME280;11648;49.306;6.934;2024-01-15T11:04:22;97262.97;;;7.07;60.81
22964;BME280;11648;49.306;6.934;2024-01-15T11:06:52;97253.16;;;7.20;60.36
22964;BME280;11648;49.306;6.934;2024-01-15T11:09:23;97252.88;;;6.84;61.71
22964;BME280;11648;49.306;6.934;2024-01-15T11:11:53;97250.34;;;7.32;60.21
22964;BME280;11648;49.306;6.934;2024-01-15T11:14:40;97255.13;;;7.58;59.45
22964;BME280;11648;49.306;6.934;2024-01-15T11:17:11;97253.66;;;7.41;59.98
22964;BME280;11648;49.306;6.934;2024-01-15T11:22:09;97261.81;;;7.25;60.33
22964;BME280;11648;49.306;6.934;2024-01-15T11:24:40;97262.75;;;7.21;60.17
22964;BME280;11648;49.306;6.934;2024-01-15T11:27:07;97263.56;;;7.23;60.08
22964;BME280;11648;49.306;6.934;2024-01-15T11:29:36;97263.44;;;7.30;60.09
22964;BME280;11648;49.306;6.934;2024-01-15T11:32:04;97257.25;;;7.36;59.90
22964;BME280;11648;49.306;6.934;2024-01-15T11:34:52;97256.22;;;7.44;59.61
22964;BME280;11648;49.306;6.934;2024-01-15T11:37:20;97258.63;;;7.55;59.45
22964;BME280;11648;49.306;6.934;2024-01-15T11:39:47;97265.94;;;7.36;59.69
22964;BME280;11648;49.306;6.934;2024-01-15T11:42:14;97266.81;;;7.37;59.62
22964;BME280;11648;49.306;6.934;2024-01-15T11:44:42;97263.19;;;6.93;60.60
22964;BME280;11648;49.306;6.934;2024-01-15T11:47:10;97264.44;;;7.25;60.29
22964;BME280;11648;49.306;6.934;2024-01-15T11:52:37;97263.78;;;7.61;58.93
22964;BME280;11648;49.306;6.934;2024-01-15T11:55:19;97264.41;;;7.72;59.03
22964;BME280;11648;49.306;6.934;2024-01-15T11:57:52;97270.91;;;7.52;59.12
22964;BME280;11648;49.306;6.934;2024-01-15T12:00:22;97278.06;;;7.43;59.34
22964;BME280;11648;49.306;6.934;2024-01-15T12:02:49;97276.63;;;7.75;58.64
22964;BME280;11648;49.306;6.934;2024-01-15T12:05:19;97271.38;;;7.75;58.40
22964;BME280;11648;49.306;6.934;2024-01-15T12:07:48;97282.00;;;7.17;60.09
22964;BME280;11648;49.306;6.934;2024-01-15T12:10:18;97274.94;;;7.69;58.62
22964;BME280;11648;49.306;6.934;2024-01-15T12:15:18;97285.81;;;7.50;58.63
22964;BME280;11648;49.306;6.934;2024-01-15T12:17:45;97272.06;;;7.37;58.92
22964;BME280;11648;49.306;6.934;2024-01-15T12:20:14;97274.84;;;7.26;59.27
22964;BME280;11648;49.306;6.934;2024-01-15T12:22:42;97276.34;;;7.41;58.83
22964;BME280;11648;49.306;6.934;2024-01-15T12:25:26;97285.66;;;7.57;58.50
22964;BME280;11648;49.306;6.934;2024-01-15T12:27:54;97289.22;;;7.03;59.24
22964;BME280;11648;49.306;6.934;2024-01-15T12:30:21;97292.84;;;7.46;58.44
22964;BME280;11648;49.306;6.934;2024-01-15T12:32:48;97284.66;;;7.64;57.62
22964;BME280;11648;49.306;6.934;2024-01-15T12:35:15;97284.44;;;7.26;58.54
22964;BME280;11648;49.306;6.934;2024-01-15T12:37:43;97293.03;;;7.35;58.65
22964;BME280;11648;49.306;6.934;2024-01-15T12:40:13;97282.25;;;7.54;57.91
22964;BME280;11648;49.306;6.934;2024-01-15T12:42:45;97286.28;;;7.70;57.21
22964;BME280;11648;49.306;6.934;2024-01-15T12:45:12;97283.53;;;7.79;57.50
22964;BME280;11648;49.306;6.934;2024-01-15T12:47:40;97277.28;;;7.84;57.03
22964;BME280;11648;49.306;6.934;2024-01-15T12:50:09;97278.25;;;8.23;55.62
22964;BME280;11648;49.306;6.934;2024-01-15T12:52:45;97266.00;;;8.24;54.74
22964;BME280;11648;49.306;6.934;2024-01-15T12:55:13;97271.03;;;7.93;55.61
22964;BME280;11648;49.306;6.934;2024-01-15T12:57:40;97266.44;;;8.04;54.73
22964;BME280;11648;49.306;6.934;2024-01-15T13:00:08;97264.84;;;8.40;53.07
22964;BME280;11648;49.306;6.934;2024-01-15T13:02:40;97271.63;;;8.06;53.58
22964;BME280;11648;49.306;6.934;2024-01-15T13:05:09;97268.91;;;8.12;53.83
22964;BME280;11648;49.306;6.934;2024-01-15T13:07:39;97271.25;;;8.24;53.44
22964;BME280;11648;49.306;6.934;2024-01-15T13:10:06;97265.63;;;8.43;53.63
22964;BME280;11648;49.306;6.934;2024-01-15T13:12:34;97267.78;;;8.65;53.26
22964;BME280;11648;49.306;6.934;2024-01-15T13:15:01;97268.59;;;8.68;52.93
22964;BME280;11648;49.306;6.934;2024-01-15T13:17:30;97275.25;;;8.81;52.70
22964;BME280;11648;49.306;6.934;2024-01-15T13:19:58;97265.66;;;8.80;52.70